createdAt,value
2022-08-14T00:00:00.933Z,0
2022-08-14T00:01:00.627Z,0
2022-08-14T00:02:01.463Z,0
2022-08-14T00:03:01.590Z,0
2022-08-14T00:04:01.268Z,0
2022-08-14T00:05:01.819Z,0
2022-08-14T00:06:01.279Z,0
2022-08-14T00:07:01.036Z,0
2022-08-14T00:08:00.798Z,0
2022-08-14T00:09:00.487Z,0
2022-08-14T00:10:49.338Z,0
2022-08-14T00:11:01.170Z,0
2022-08-14T00:12:00.918Z,0
2022-08-14T00:13:00.904Z,0
2022-08-14T00:14:02.027Z,0
2022-08-14T00:15:00.833Z,0
2022-08-14T00:16:00.903Z,0
2022-08-14T00:17:00.982Z,0
2022-08-14T00:18:00.851Z,0
2022-08-14T00:19:06.253Z,0
2022-08-14T00:20:01.525Z,0
2022-08-14T00:21:00.581Z,0
2022-08-14T00:22:00.841Z,0
2022-08-14T00:23:11.953Z,0
2022-08-14T00:24:01.693Z,0
2022-08-14T00:25:01.052Z,0
2022-08-14T00:26:06.591Z,0
2022-08-14T00:27:01.923Z,0
2022-08-14T00:28:01.043Z,0
2022-08-14T00:29:01.217Z,0
2022-08-14T00:30:00.931Z,0
2022-08-14T00:31:01.051Z,0
2022-08-14T00:32:00.761Z,0
2022-08-14T00:33:00.844Z,0
2022-08-14T00:34:35.276Z,0
2022-08-14T00:35:00.619Z,0
2022-08-14T00:36:35.040Z,0
2022-08-14T00:37:01.903Z,0
2022-08-14T00:38:01.588Z,0
2022-08-14T00:39:01.121Z,0
2022-08-14T00:40:00.799Z,0
2022-08-14T00:41:00.527Z,0
2022-08-14T00:42:01.180Z,0
2022-08-14T00:43:01.206Z,0
2022-08-14T00:44:01.588Z,0
2022-08-14T00:45:00.515Z,0
2022-08-14T00:46:00.412Z,0
2022-08-14T00:47:00.233Z,0
2022-08-14T00:48:00.661Z,0
2022-08-14T00:49:00.355Z,0
2022-08-14T00:50:00.033Z,0
2022-08-14T00:51:00.276Z,0
2022-08-14T00:52:00.327Z,0
2022-08-14T00:53:00.104Z,0
2022-08-14T00:54:00.798Z,0
2022-08-14T00:55:01.357Z,0
2022-08-14T00:56:01.096Z,0
2022-08-14T00:57:02.275Z,0
2022-08-14T00:58:01.122Z,0
2022-08-14T00:59:01.014Z,0
2022-08-14T01:00:00.727Z,0
2022-08-14T01:01:00.436Z,0
2022-08-14T01:02:05.378Z,0
2022-08-14T01:03:01.164Z,0
2022-08-14T01:04:00.817Z,0
2022-08-14T01:05:00.854Z,0
2022-08-14T01:06:01.090Z,0
2022-08-14T01:07:08.153Z,0
2022-08-14T01:08:00.957Z,0
2022-08-14T01:09:00.778Z,0
2022-08-14T01:10:00.397Z,0
2022-08-14T01:11:00.203Z,0
2022-08-14T01:12:09.987Z,0
2022-08-14T01:13:01.121Z,0
2022-08-14T01:14:01.606Z,0
2022-08-14T01:15:02.436Z,0
2022-08-14T01:16:02.787Z,0
2022-08-14T01:17:13.950Z,0
2022-08-14T01:18:01.483Z,0
2022-08-14T01:19:02.451Z,0
2022-08-14T01:20:01.789Z,0
2022-08-14T01:21:01.492Z,0
2022-08-14T01:22:00.785Z,0
2022-08-14T01:23:01.303Z,0
2022-08-14T01:24:00.953Z,0
2022-08-14T01:25:00.679Z,0
2022-08-14T01:26:01.052Z,0
2022-08-14T01:27:01.509Z,0
2022-08-14T01:28:01.437Z,0
2022-08-14T01:29:01.079Z,0
2022-08-14T01:30:04.601Z,0
2022-08-14T01:31:00.801Z,0
2022-08-14T01:32:00.716Z,0
2022-08-14T01:33:00.426Z,0
2022-08-14T01:35:17.424Z,0
2022-08-14T01:35:17.700Z,0
2022-08-14T01:36:05.643Z,0
2022-08-14T01:37:01.371Z,0
2022-08-14T01:38:00.578Z,0
2022-08-14T01:39:00.530Z,0
2022-08-14T01:40:00.926Z,0
2022-08-14T01:41:00.940Z,0
2022-08-14T01:42:00.623Z,0
2022-08-14T01:43:00.375Z,0
2022-08-14T01:44:01.646Z,0
2022-08-14T01:45:01.544Z,0
2022-08-14T01:46:06.431Z,0
2022-08-14T01:47:01.139Z,0
2022-08-14T01:48:02.975Z,0
2022-08-14T01:49:01.541Z,0
2022-08-14T01:50:02.065Z,0
2022-08-14T01:51:01.263Z,0
2022-08-14T01:52:00.949Z,0
2022-08-14T01:53:02.207Z,0
2022-08-14T01:54:00.983Z,0
2022-08-14T01:55:01.012Z,0
2022-08-14T01:56:00.683Z,0
2022-08-14T01:57:00.476Z,0
2022-08-14T01:58:19.355Z,0
2022-08-14T01:59:01.453Z,0
2022-08-14T02:00:00.911Z,0
2022-08-14T02:01:01.103Z,0
2022-08-14T02:02:00.897Z,0
2022-08-14T02:03:01.031Z,0
2022-08-14T02:04:00.732Z,0
2022-08-14T02:05:00.436Z,0
2022-08-14T02:06:31.825Z,0
2022-08-14T02:07:01.268Z,0
2022-08-14T02:08:08.889Z,0
2022-08-14T02:09:00.962Z,0
2022-08-14T02:10:01.702Z,0
2022-08-14T02:11:00.880Z,0
2022-08-14T02:12:00.677Z,0
2022-08-14T02:13:01.691Z,0
2022-08-14T02:14:07.147Z,0
2022-08-14T02:15:01.767Z,0
2022-08-14T02:16:01.316Z,0
2022-08-14T02:17:01.627Z,0
2022-08-14T02:18:01.702Z,0
2022-08-14T02:19:01.453Z,0
2022-08-14T02:20:01.248Z,0
2022-08-14T02:21:01.060Z,0
2022-08-14T02:22:02.798Z,0
2022-08-14T02:23:01.267Z,0
2022-08-14T02:24:00.912Z,0
2022-08-14T02:25:00.668Z,0
2022-08-14T02:26:00.372Z,0
2022-08-14T02:28:23.307Z,0
2022-08-14T02:28:24.310Z,0
2022-08-14T02:29:00.791Z,0
2022-08-14T02:30:02.681Z,0
2022-08-14T02:31:01.269Z,0
2022-08-14T02:32:00.974Z,0
2022-08-14T02:33:04.434Z,0
2022-08-14T02:34:00.935Z,0
2022-08-14T02:35:00.650Z,0
2022-08-14T02:37:02.318Z,0
2022-08-14T02:37:04.002Z,0
2022-08-14T02:38:11.595Z,0
2022-08-14T02:39:01.607Z,0
2022-08-14T02:40:01.802Z,0
2022-08-14T02:41:00.788Z,0
2022-08-14T02:42:00.451Z,0
2022-08-14T02:43:08.835Z,0
2022-08-14T02:44:01.432Z,0
2022-08-14T02:45:01.180Z,0
2022-08-14T02:46:01.146Z,0
2022-08-14T02:47:01.462Z,0
2022-08-14T02:49:03.761Z,0
2022-08-14T02:49:06.282Z,0
2022-08-14T02:50:00.765Z,0
2022-08-14T02:51:01.493Z,0
2022-08-14T02:52:01.504Z,0
2022-08-14T02:53:12.861Z,0
2022-08-14T02:54:01.502Z,0
2022-08-14T02:55:00.673Z,0
2022-08-14T02:56:03.308Z,0
2022-08-14T02:57:39.395Z,0
2022-08-14T02:58:29.300Z,0
2022-08-14T02:59:01.497Z,0
2022-08-14T03:00:00.693Z,0
2022-08-14T03:01:01.199Z,0
2022-08-14T03:02:00.827Z,0
2022-08-14T03:03:01.348Z,0
2022-08-14T03:04:00.818Z,0
2022-08-14T03:05:01.319Z,0
2022-08-14T03:06:00.943Z,0
2022-08-14T03:07:07.321Z,0
2022-08-14T03:08:00.648Z,0
2022-08-14T03:09:00.344Z,0
2022-08-14T03:10:28.148Z,0
2022-08-14T03:11:00.626Z,0
2022-08-14T03:12:01.011Z,0
2022-08-14T03:13:01.105Z,0
2022-08-14T03:14:00.744Z,0
2022-08-14T03:15:00.481Z,0
2022-08-14T03:16:00.904Z,0.08055555555555555
2022-08-14T03:17:01.515Z,0.03888888888888889
2022-08-14T03:18:00.859Z,0
2022-08-14T03:19:00.516Z,0
2022-08-14T03:20:00.839Z,0
2022-08-14T03:21:00.539Z,0
2022-08-14T03:22:00.272Z,0
2022-08-14T03:23:00.412Z,0
2022-08-14T03:24:00.975Z,0
2022-08-14T03:25:00.661Z,0
2022-08-14T03:26:00.348Z,0
2022-08-14T03:27:00.068Z,0
2022-08-14T03:28:02.594Z,0
2022-08-14T03:29:01.139Z,0
2022-08-14T03:30:00.989Z,0
2022-08-14T03:31:01.201Z,0
2022-08-14T03:32:00.903Z,0
2022-08-14T03:33:00.609Z,0
2022-08-14T03:34:00.662Z,0
2022-08-14T03:35:00.407Z,0
2022-08-14T03:37:28.996Z,0
2022-08-14T03:37:39.325Z,0
2022-08-14T03:39:14.960Z,0
2022-08-14T03:39:15.719Z,0
2022-08-14T03:40:01.064Z,0
2022-08-14T03:41:00.789Z,0
2022-08-14T03:42:01.876Z,0
2022-08-14T03:43:00.608Z,0
2022-08-14T03:45:25.467Z,0
2022-08-14T03:45:27.034Z,0
2022-08-14T03:46:02.882Z,0
2022-08-14T03:47:03.021Z,0
2022-08-14T03:48:01.662Z,0
2022-08-14T03:49:00.983Z,0
2022-08-14T03:50:01.120Z,0
2022-08-14T03:51:01.481Z,0
2022-08-14T03:52:01.432Z,0
2022-08-14T03:53:01.341Z,0
2022-08-14T03:54:01.244Z,0
2022-08-14T03:55:01.549Z,0
2022-08-14T03:56:00.963Z,0
2022-08-14T03:57:02.843Z,0
2022-08-14T03:58:01.083Z,0
2022-08-14T03:59:01.494Z,0
2022-08-14T04:00:00.792Z,0
2022-08-14T04:01:01.356Z,0
2022-08-14T04:02:02.441Z,0
2022-08-14T04:03:01.677Z,0
2022-08-14T04:04:01.338Z,0
2022-08-14T04:05:11.909Z,0
2022-08-14T04:06:00.577Z,0
2022-08-14T04:07:00.506Z,0
2022-08-14T04:08:22.688Z,0
2022-08-14T04:09:01.183Z,0
2022-08-14T04:10:02.918Z,0
2022-08-14T04:11:02.725Z,0
2022-08-14T04:12:01.923Z,0
2022-08-14T04:13:03.470Z,0
2022-08-14T04:14:01.247Z,0
2022-08-14T04:15:00.988Z,0
2022-08-14T04:16:02.239Z,0
2022-08-14T04:17:00.608Z,0
2022-08-14T04:18:00.912Z,0
2022-08-14T04:19:00.541Z,0
2022-08-14T04:20:01.084Z,0
2022-08-14T04:21:00.596Z,0
2022-08-14T04:22:03.554Z,0
2022-08-14T04:23:00.550Z,0
2022-08-14T04:24:00.886Z,0
2022-08-14T04:25:04.942Z,0
2022-08-14T04:26:00.853Z,0
2022-08-14T04:27:00.560Z,0
2022-08-14T04:28:02.308Z,0
2022-08-14T04:29:14.322Z,0
2022-08-14T04:30:01.482Z,0
2022-08-14T04:31:01.981Z,0
2022-08-14T04:32:57.723Z,0
2022-08-14T04:33:06.255Z,0
2022-08-14T04:34:06.211Z,0
2022-08-14T04:35:01.345Z,0
2022-08-14T04:36:00.744Z,0
2022-08-14T04:37:00.561Z,0
2022-08-14T04:38:00.523Z,0
2022-08-14T04:39:12.177Z,0
2022-08-14T04:40:03.188Z,0
2022-08-14T04:41:01.263Z,0
2022-08-14T04:42:00.951Z,0
2022-08-14T04:43:00.626Z,0
2022-08-14T04:44:35.941Z,0
2022-08-14T04:45:01.371Z,0
2022-08-14T04:46:00.976Z,0
2022-08-14T04:47:00.783Z,0
2022-08-14T04:48:00.953Z,0
2022-08-14T04:49:00.797Z,0
2022-08-14T04:50:00.875Z,0
2022-08-14T04:51:00.848Z,0
2022-08-14T04:52:02.991Z,0
2022-08-14T04:53:01.983Z,0
2022-08-14T04:54:00.833Z,0
2022-08-14T04:55:00.542Z,0
2022-08-14T04:56:00.862Z,0
2022-08-14T04:57:01.184Z,0
2022-08-14T04:58:02.014Z,0
2022-08-14T04:59:01.412Z,0
2022-08-14T05:00:01.311Z,0
2022-08-14T05:01:01.312Z,0
2022-08-14T05:02:01.303Z,0
2022-08-14T05:03:01.685Z,0
2022-08-14T05:04:07.949Z,0
2022-08-14T05:05:00.812Z,0
2022-08-14T05:06:00.512Z,0
2022-08-14T05:07:00.493Z,0
2022-08-14T05:08:01.787Z,0
2022-08-14T05:09:01.425Z,0
2022-08-14T05:10:01.283Z,0
2022-08-14T05:11:01.528Z,0
2022-08-14T05:13:13.578Z,0
2022-08-14T05:13:21.097Z,0
2022-08-14T05:14:33.756Z,0
2022-08-14T05:15:00.699Z,0
2022-08-14T05:16:00.875Z,0
2022-08-14T05:17:01.912Z,0
2022-08-14T05:18:17.105Z,0
2022-08-14T05:19:18.375Z,0
2022-08-14T05:21:56.729Z,0
2022-08-14T05:21:57.918Z,0
2022-08-14T05:22:16.047Z,0
2022-08-14T05:23:01.329Z,0
2022-08-14T05:24:00.724Z,0
2022-08-14T05:25:00.531Z,0
2022-08-14T05:26:00.242Z,0
2022-08-14T05:26:59.897Z,0
2022-08-14T05:27:59.646Z,0
2022-08-14T05:28:59.755Z,0
2022-08-14T05:30:01.486Z,0
2022-08-14T05:31:01.584Z,0
2022-08-14T05:32:00.920Z,0
2022-08-14T05:33:00.894Z,0
2022-08-14T05:34:00.800Z,0
2022-08-14T05:35:00.481Z,0
2022-08-14T05:36:00.112Z,0
2022-08-14T05:37:02.735Z,0
2022-08-14T05:38:01.293Z,0
2022-08-14T05:39:01.009Z,0
2022-08-14T05:40:01.238Z,0
2022-08-14T05:41:00.731Z,0
2022-08-14T05:42:00.931Z,0
2022-08-14T05:43:00.963Z,0
2022-08-14T05:44:00.922Z,0
2022-08-14T05:45:00.785Z,0
2022-08-14T05:46:01.711Z,0
2022-08-14T05:47:01.380Z,0
2022-08-14T05:48:01.655Z,0
2022-08-14T05:49:01.446Z,0
2022-08-14T05:50:00.672Z,0
2022-08-14T05:51:01.691Z,0
2022-08-14T05:52:01.922Z,0
2022-08-14T05:53:01.556Z,0
2022-08-14T05:54:13.919Z,0
2022-08-14T05:55:01.331Z,0
2022-08-14T05:56:00.519Z,0
2022-08-14T05:57:00.257Z,0
2022-08-14T05:58:01.078Z,0
2022-08-14T05:59:00.849Z,0
2022-08-14T06:00:01.952Z,0
2022-08-14T06:01:01.692Z,0
2022-08-14T06:02:00.826Z,0
2022-08-14T06:03:04.057Z,0
2022-08-14T06:04:00.889Z,0
2022-08-14T06:05:00.962Z,0
2022-08-14T06:06:01.432Z,0
2022-08-14T06:07:00.931Z,0
2022-08-14T06:08:01.436Z,0
2022-08-14T06:09:00.657Z,0
2022-08-14T06:10:03.925Z,0
2022-08-14T06:11:00.805Z,0
2022-08-14T06:12:00.499Z,0
2022-08-14T06:13:00.385Z,0.08055555555555555
2022-08-14T06:14:00.147Z,0
2022-08-14T06:15:00.812Z,0
2022-08-14T06:16:00.856Z,0
2022-08-14T06:17:00.559Z,0
2022-08-14T06:18:01.605Z,0
2022-08-14T06:19:00.573Z,0.03888888888888889
2022-08-14T06:20:00.739Z,0
2022-08-14T06:21:00.893Z,0
2022-08-14T06:22:00.679Z,0.15555555555555556
2022-08-14T06:23:00.911Z,0
2022-08-14T06:24:01.025Z,0
2022-08-14T06:25:00.771Z,0.024999999999999998
2022-08-14T06:26:00.825Z,0
2022-08-14T06:27:04.744Z,0.036111111111111115
2022-08-14T06:28:02.095Z,0
2022-08-14T06:29:01.245Z,0.03888888888888889
2022-08-14T06:30:02.380Z,0
2022-08-14T06:31:01.073Z,0
2022-08-14T06:32:36.456Z,0
2022-08-14T06:33:04.983Z,0
2022-08-14T06:35:04.354Z,0
2022-08-14T06:35:12.831Z,0
2022-08-14T06:36:01.608Z,0
2022-08-14T06:37:01.496Z,0
2022-08-14T06:38:00.712Z,0
2022-08-14T06:39:01.191Z,0
2022-08-14T06:40:07.662Z,0
2022-08-14T06:41:00.617Z,0
2022-08-14T06:42:01.059Z,0
2022-08-14T06:43:03.556Z,0
2022-08-14T06:44:00.839Z,0
2022-08-14T06:45:10.523Z,0
2022-08-14T06:46:03.187Z,0
2022-08-14T06:47:01.377Z,0
2022-08-14T06:48:01.083Z,0
2022-08-14T06:49:00.906Z,0
2022-08-14T06:50:14.871Z,0
2022-08-14T06:51:00.697Z,0
2022-08-14T06:52:00.385Z,0
2022-08-14T06:53:01.368Z,0
2022-08-14T06:54:00.607Z,0
2022-08-14T06:55:15.905Z,0.2777777777777778
2022-08-14T06:56:02.168Z,0.23888888888888887
2022-08-14T06:57:00.616Z,0.35833333333333334
2022-08-14T06:58:00.352Z,0.2777777777777778
2022-08-14T06:59:01.476Z,0.15833333333333333
2022-08-14T07:00:01.048Z,0
2022-08-14T07:01:01.189Z,0.4361111111111111
2022-08-14T07:02:01.169Z,0.11944444444444444
2022-08-14T07:03:00.883Z,0.08055555555555555
2022-08-14T07:04:00.556Z,0.19999999999999998
2022-08-14T07:05:00.283Z,0.19999999999999998
2022-08-14T07:06:01.450Z,0.19722222222222222
2022-08-14T07:07:01.403Z,0
2022-08-14T07:08:00.917Z,0.2777777777777778
2022-08-14T07:09:00.613Z,0.23888888888888887
2022-08-14T07:10:00.265Z,0
2022-08-14T07:10:59.910Z,0.08055555555555555
2022-08-14T07:12:00.371Z,0.15833333333333333
2022-08-14T07:13:04.321Z,0.2777777777777778
2022-08-14T07:14:00.861Z,0
2022-08-14T07:15:01.695Z,0.08055555555555555
2022-08-14T07:16:05.612Z,0.08055555555555555
2022-08-14T07:17:01.573Z,0.15833333333333333
2022-08-14T07:18:00.783Z,0.19999999999999998
2022-08-14T07:19:01.210Z,0.03888888888888889
2022-08-14T07:20:00.638Z,0.5972222222222222
2022-08-14T07:21:00.332Z,0.35833333333333334
2022-08-14T07:22:00.080Z,0.2777777777777778
2022-08-14T07:23:07.483Z,0.3972222222222222
2022-08-14T07:24:01.315Z,0.31666666666666665
2022-08-14T07:25:00.978Z,0.03888888888888889
2022-08-14T07:26:02.183Z,0
2022-08-14T07:27:00.619Z,0.08055555555555555
2022-08-14T07:28:00.317Z,0
2022-08-14T07:29:00.023Z,0.31666666666666665
2022-08-14T07:30:01.251Z,0.4361111111111111
2022-08-14T07:31:04.707Z,0
2022-08-14T07:32:01.361Z,0.5
2022-08-14T07:33:01.168Z,0.19999999999999998
2022-08-14T07:34:01.480Z,0.5555555555555556
2022-08-14T07:35:01.175Z,0.9527777777777778
2022-08-14T07:36:00.876Z,0.8138888888888889
2022-08-14T07:37:01.603Z,0.33055555555555555
2022-08-14T07:38:00.898Z,0.8083333333333333
2022-08-14T07:39:00.888Z,0.19999999999999998
2022-08-14T07:40:00.651Z,0.5555555555555556
2022-08-14T07:41:00.607Z,0.11944444444444444
2022-08-14T07:42:01.833Z,0.30833333333333335
2022-08-14T07:43:14.257Z,0.3972222222222222
2022-08-14T07:44:28.958Z,0.3972222222222222
2022-08-14T07:45:00.746Z,0.11944444444444444
2022-08-14T07:46:00.762Z,0.08055555555555555
2022-08-14T07:47:01.369Z,0.23888888888888887
2022-08-14T07:48:01.704Z,0.20555555555555555
2022-08-14T07:49:01.725Z,0.4361111111111111
2022-08-14T07:50:01.773Z,0.23888888888888887
2022-08-14T07:51:10.571Z,0.3972222222222222
2022-08-14T07:52:01.650Z,0.7944444444444444
2022-08-14T07:53:00.693Z,0.5972222222222222
2022-08-14T07:54:00.408Z,0.4361111111111111
2022-08-14T07:55:00.082Z,0.22222222222222224
2022-08-14T07:56:21.726Z,0.23888888888888887
2022-08-14T07:57:06.557Z,0.2111111111111111
2022-08-14T07:58:01.436Z,0.4305555555555556
2022-08-14T07:59:01.438Z,1
2022-08-14T08:00:00.677Z,0.23888888888888887
2022-08-14T08:01:00.497Z,0
2022-08-14T08:02:00.170Z,0.15833333333333333
2022-08-14T08:03:00.607Z,0.6361111111111111
2022-08-14T08:04:00.497Z,0.5361111111111111
2022-08-14T08:05:01.937Z,0.5972222222222222
2022-08-14T08:06:01.500Z,0.20277777777777778
2022-08-14T08:07:01.152Z,0.5166666666666667
2022-08-14T08:08:01.222Z,0.31666666666666665
2022-08-14T08:09:03.137Z,0.6361111111111111
2022-08-14T08:10:02.320Z,0.15833333333333333
2022-08-14T08:11:02.103Z,0
2022-08-14T08:12:00.702Z,0.15833333333333333
2022-08-14T08:13:01.405Z,0.31666666666666665
2022-08-14T08:14:00.717Z,0.2777777777777778
2022-08-14T08:15:02.990Z,0.19999999999999998
2022-08-14T08:16:01.256Z,0.8027777777777778
2022-08-14T08:17:00.843Z,0.513888888888889
2022-08-14T08:18:01.277Z,0.15833333333333333
2022-08-14T08:19:05.901Z,0.5361111111111111
2022-08-14T08:20:00.638Z,0.5555555555555556
2022-08-14T08:21:02.035Z,0.26944444444444443
2022-08-14T08:22:01.097Z,0.08055555555555555
2022-08-14T08:23:06.509Z,0.35833333333333334
2022-08-14T08:24:00.823Z,0.6416666666666667
2022-08-14T08:25:01.683Z,0.6361111111111111
2022-08-14T08:26:02.141Z,0.5972222222222222
2022-08-14T08:27:00.904Z,0.3972222222222222
2022-08-14T08:28:00.624Z,0.5972222222222222
2022-08-14T08:29:00.756Z,0.47777777777777775
2022-08-14T08:30:00.740Z,0.19999999999999998
2022-08-14T08:31:06.239Z,0.20555555555555555
2022-08-14T08:32:06.113Z,0.2777777777777778
2022-08-14T08:33:00.875Z,0.47777777777777775
2022-08-14T08:34:00.849Z,0.31666666666666665
2022-08-14T08:35:00.752Z,0.9
2022-08-14T08:36:07.828Z,0.2861111111111111
2022-08-14T08:37:05.273Z,0.31666666666666665
2022-08-14T08:38:03.081Z,0.5166666666666667
2022-08-14T08:39:15.386Z,0.675
2022-08-14T08:40:01.391Z,0.11944444444444444
2022-08-14T08:41:11.314Z,0.33055555555555555
2022-08-14T08:42:01.243Z,0.47777777777777775
2022-08-14T08:43:01.456Z,0.5833333333333334
2022-08-14T08:44:01.114Z,0.8944444444444445
2022-08-14T08:45:01.236Z,0.5555555555555556
2022-08-14T08:46:18.527Z,0.875
2022-08-14T08:47:00.811Z,0.3611111111111111
2022-08-14T08:48:00.646Z,0.35833333333333334
2022-08-14T08:50:01.202Z,0.4361111111111111
2022-08-14T08:51:14.662Z,1.2638888888888888
2022-08-14T08:52:00.783Z,0.7333333333333334
2022-08-14T08:53:02.205Z,0.4361111111111111
2022-08-14T08:54:00.797Z,0.49722222222222223
2022-08-14T08:55:05.031Z,1.3111111111111111
2022-08-14T08:56:30.247Z,0.2916666666666667
2022-08-14T08:57:02.543Z,0.47777777777777775
2022-08-14T08:58:00.863Z,0.5555555555555556
2022-08-14T08:59:00.654Z,0.23888888888888887
2022-08-14T09:00:00.702Z,0.6361111111111111
2022-08-14T09:01:15.890Z,0.6333333333333333
2022-08-14T09:02:00.775Z,0.19999999999999998
2022-08-14T09:03:00.442Z,0.19999999999999998
2022-08-14T09:04:00.081Z,0.4361111111111111
2022-08-14T09:04:59.842Z,0.3972222222222222
2022-08-14T09:06:01.517Z,0.5972222222222222
2022-08-14T09:07:10.877Z,0.4361111111111111
2022-08-14T09:08:01.205Z,0.15833333333333333
2022-08-14T09:09:01.135Z,0.08055555555555555
2022-08-14T09:10:01.185Z,0.23888888888888887
2022-08-14T09:11:00.890Z,0.5166666666666667
2022-08-14T09:12:01.132Z,0.23888888888888887
2022-08-14T09:13:00.525Z,0.35833333333333334
2022-08-14T09:14:00.937Z,0.4583333333333333
2022-08-14T09:15:00.902Z,0.17777777777777778
2022-08-14T09:16:01.931Z,0.1638888888888889
2022-08-14T09:17:01.561Z,0.31666666666666665
2022-08-14T09:18:00.866Z,0.5166666666666667
2022-08-14T09:19:00.839Z,0.8333333333333333
2022-08-14T09:20:02.215Z,0.3361111111111111
2022-08-14T09:21:01.534Z,0.6361111111111111
2022-08-14T09:22:00.857Z,0.7944444444444444
2022-08-14T09:23:01.284Z,0.6944444444444444
2022-08-14T09:24:28.615Z,0.03888888888888889
2022-08-14T09:25:01.078Z,0.35833333333333334
2022-08-14T09:26:01.987Z,0.47777777777777775
2022-08-14T09:27:01.058Z,0.9
2022-08-14T09:28:00.880Z,0.5194444444444445
2022-08-14T09:29:00.724Z,0.8333333333333333
2022-08-14T09:30:00.405Z,0.3972222222222222
2022-08-14T09:31:00.737Z,0.47777777777777775
2022-08-14T09:32:00.503Z,1.7472222222222222
2022-08-14T09:33:00.371Z,0.9944444444444445
2022-08-14T09:34:00.070Z,0.7555555555555555
2022-08-14T09:35:01.197Z,0.8944444444444445
2022-08-14T09:36:00.852Z,0.47777777777777775
2022-08-14T09:37:00.559Z,0.41666666666666663
2022-08-14T09:38:00.335Z,0.34444444444444444
2022-08-14T09:39:00.168Z,0.5361111111111111
2022-08-14T09:40:00.448Z,0.675
2022-08-14T09:41:00.704Z,0.5166666666666667
2022-08-14T09:42:21.104Z,0.8333333333333333
2022-08-14T09:43:01.426Z,0.5166666666666667
2022-08-14T09:44:00.697Z,0.7555555555555555
2022-08-14T09:45:03.930Z,0.5166666666666667
2022-08-14T09:46:02.686Z,0.03888888888888889
2022-08-14T09:47:00.655Z,0.7944444444444444
2022-08-14T09:48:00.372Z,0.35833333333333334
2022-08-14T09:49:00.147Z,0.6583333333333333
2022-08-14T09:50:01.263Z,0.21944444444444444
2022-08-14T09:52:00.551Z,0.23888888888888887
2022-08-14T09:53:00.952Z,0.4361111111111111
2022-08-14T09:54:18.811Z,0.47777777777777775
2022-08-14T09:55:02.828Z,0.675
2022-08-14T09:56:01.352Z,1.0333333333333334
2022-08-14T09:57:01.093Z,0.8250000000000001
2022-08-14T09:58:01.113Z,0.5972222222222222
2022-08-14T09:59:01.039Z,0.911111111111111
2022-08-14T10:00:00.862Z,1.6694444444444443
2022-08-14T10:01:00.846Z,1.1111111111111112
2022-08-14T10:02:00.682Z,0.6944444444444444
2022-08-14T10:03:00.673Z,0.23888888888888887
2022-08-14T10:04:01.542Z,0.19999999999999998
2022-08-14T10:05:01.048Z,0.11944444444444444
2022-08-14T10:06:00.748Z,0.6361111111111111
2022-08-14T10:07:01.724Z,1.2027777777777777
2022-08-14T10:08:01.077Z,1.2305555555555554
2022-08-14T10:09:01.807Z,0.5555555555555556
2022-08-14T10:10:02.514Z,0.7555555555555555
2022-08-14T10:11:03.349Z,0.2777777777777778
2022-08-14T10:12:04.751Z,0.5972222222222222
2022-08-14T10:13:01.315Z,0.5972222222222222
2022-08-14T10:14:01.822Z,1.2722222222222221
2022-08-14T10:15:00.651Z,0.9555555555555555
2022-08-14T10:16:01.029Z,0.9138888888888889
2022-08-14T10:17:07.046Z,0.9138888888888889
2022-08-14T10:18:00.776Z,0.9138888888888889
2022-08-14T10:19:00.536Z,0.5555555555555556
2022-08-14T10:20:00.245Z,0.8472222222222221
2022-08-14T10:21:00.792Z,0.37777777777777777
2022-08-14T10:23:14.402Z,0.47777777777777775
2022-08-14T10:23:21.874Z,0.5555555555555556
2022-08-14T10:24:01.581Z,1.2527777777777778
2022-08-14T10:25:01.264Z,0.6166666666666667
2022-08-14T10:26:00.880Z,1.0722222222222222
2022-08-14T10:27:12.012Z,0.5555555555555556
2022-08-14T10:28:00.628Z,0.5972222222222222
2022-08-14T10:29:18.253Z,0.7805555555555556
2022-08-14T10:30:00.805Z,0.47777777777777775
2022-08-14T10:31:00.909Z,0.875
2022-08-14T10:32:17.879Z,0.3972222222222222
2022-08-14T10:33:01.382Z,1.1916666666666667
2022-08-14T10:34:01.127Z,1.488888888888889
2022-08-14T10:35:01.143Z,0.875
2022-08-14T10:36:01.521Z,0.25833333333333336
2022-08-14T10:37:16.306Z,0.9527777777777778
2022-08-14T10:38:00.543Z,0.6361111111111111
2022-08-14T10:39:01.080Z,1.2888888888888888
2022-08-14T10:40:01.714Z,0.8333333333333333
2022-08-14T10:41:02.212Z,0.7944444444444444
2022-08-14T10:42:00.979Z,0.47777777777777775
2022-08-14T10:43:01.132Z,1.2083333333333333
2022-08-14T10:44:00.814Z,1.4277777777777776
2022-08-14T10:45:00.893Z,1.0722222222222222
2022-08-14T10:46:21.334Z,1.5888888888888888
2022-08-14T10:47:36.835Z,0.23888888888888887
2022-08-14T10:48:07.711Z,0.35833333333333334
2022-08-14T10:49:01.347Z,1.0722222222222222
2022-08-14T10:50:00.661Z,0.875
2022-08-14T10:51:00.455Z,1.152777777777778
2022-08-14T10:52:00.179Z,0.9138888888888889
2022-08-14T10:53:00.037Z,0.7944444444444444
2022-08-14T10:54:01.279Z,0.8138888888888889
2022-08-14T10:55:01.226Z,0.7944444444444444
2022-08-14T10:56:03.749Z,1.1888888888888889
2022-08-14T10:57:03.566Z,0.23888888888888887
2022-08-14T10:58:01.406Z,0
2022-08-14T10:59:01.294Z,0.4361111111111111
2022-08-14T11:00:00.955Z,0.9138888888888889
2022-08-14T11:01:00.993Z,0.47777777777777775
2022-08-14T11:02:01.095Z,0.47777777777777775
2022-08-14T11:03:01.577Z,0.8333333333333333
2022-08-14T11:04:00.906Z,1.2722222222222221
2022-08-14T11:05:04.898Z,0.9138888888888889
2022-08-14T11:06:00.748Z,1.35
2022-08-14T11:07:00.458Z,0.7138888888888888
2022-08-14T11:08:01.263Z,0.7083333333333333
2022-08-14T11:09:00.909Z,0.19999999999999998
2022-08-14T11:10:00.617Z,0.9527777777777778
2022-08-14T11:11:00.337Z,0.9527777777777778
2022-08-14T11:12:35.049Z,0.31666666666666665
2022-08-14T11:13:01.037Z,0.11944444444444444
2022-08-14T11:14:01.304Z,0.675
2022-08-14T11:15:02.497Z,0.8333333333333333
2022-08-14T11:16:00.921Z,0.4361111111111111
2022-08-14T11:17:00.614Z,0.31666666666666665
2022-08-14T11:18:01.394Z,0.8916666666666666
2022-08-14T11:19:01.345Z,0.9333333333333332
2022-08-14T11:20:01.405Z,0.23888888888888887
2022-08-14T11:21:01.772Z,0.8333333333333333
2022-08-14T11:22:01.557Z,0.8944444444444445
2022-08-14T11:23:00.784Z,0.5166666666666667
2022-08-14T11:24:00.486Z,1.152777777777778
2022-08-14T11:25:00.211Z,0.31666666666666665
2022-08-14T11:26:01.370Z,0.5166666666666667
2022-08-14T11:27:01.828Z,0.31666666666666665
2022-08-14T11:28:00.984Z,0.3972222222222222
2022-08-14T11:29:00.687Z,0.4361111111111111
2022-08-14T11:30:51.100Z,0.5972222222222222
2022-08-14T11:31:01.504Z,1.1111111111111112
2022-08-14T11:32:01.218Z,1.8277777777777777
2022-08-14T11:33:01.156Z,1.5444444444444443
2022-08-14T11:34:00.920Z,0.5888888888888889
2022-08-14T11:35:01.033Z,0.2777777777777778
2022-08-14T11:36:00.918Z,1.152777777777778
2022-08-14T11:37:17.926Z,0.22777777777777775
2022-08-14T11:38:00.763Z,0.49722222222222223
2022-08-14T11:39:00.558Z,0.5166666666666667
2022-08-14T11:40:00.387Z,1.7083333333333335
2022-08-14T11:41:00.285Z,1.0722222222222222
2022-08-14T11:42:00.996Z,1.152777777777778
2022-08-14T11:43:01.090Z,1.3611111111111112
2022-08-14T11:44:01.609Z,0.5555555555555556
2022-08-14T11:45:00.936Z,1.2305555555555554
2022-08-14T11:46:03.766Z,0.3972222222222222
2022-08-14T11:47:05.909Z,0.9138888888888889
2022-08-14T11:48:13.239Z,0.5166666666666667
2022-08-14T11:49:05.577Z,0.575